Time;durP1;ratioP1;P1;durP2;ratioP2;P2;SDS_P1;SDS_P2;PMS_P1;PMS_P2;Temp;Humidity;BMP_temperature;BMP_pressure;BME280_temperature;BME280_humidity;BME280_pressure;Samples;Min_cycle;Max_cycle;Signal;HPM_P1;HPM_P2
2022/04/02 00:01:08;;;;;;;;;18.00;17.00;;;;;4.36;58.99;101091.88;5060217;28;45292;-56
2022/04/02 00:03:33;;;;;;;;;11.50;10.00;;;;;4.37;59.06;101097.97;5060292;28;45313;-52
2022/04/02 00:05:59;;;;;;;;;17.75;17.50;;;;;4.33;58.27;101093.84;5060476;28;45262;-53
2022/04/02 00:08:25;;;;;;;;;19.75;13.50;;;;;4.34;58.76;101098.16;5059786;28;46176;-53
2022/04/02 00:10:51;;;;;;;;;13.50;13.50;;;;;4.31;58.71;101093.97;5060472;28;45330;-51
2022/04/02 00:13:17;;;;;;;;;14.00;10.75;;;;;4.17;58.69;101086.94;5060396;28;45248;-52
2022/04/02 00:15:42;;;;;;;;;13.50;13.50;;;;;4.17;58.50;101100.09;5060761;28;45365;-51
2022/04/02 00:18:08;;;;;;;;;21.75;13.75;;;;;4.11;58.41;101097.00;5060246;28;46046;-53
2022/04/02 00:20:33;;;;;;;;;17.50;13.50;;;;;3.96;58.75;101089.13;5060241;28;45402;-54
2022/04/02 00:25:43;;;;;;;;;14.00;12.50;;;;;3.98;58.19;101100.41;5060290;28;45386;-52
2022/04/02 00:28:08;;;;;;;;;13.75;13.75;;;;;3.95;58.65;101100.59;5060139;28;46125;-52
2022/04/02 00:30:34;;;;;;;;;15.00;13.75;;;;;3.92;58.28;101098.16;5059524;28;45397;-51
2022/04/02 00:33:00;;;;;;;;;15.25;15.00;;;;;3.90;58.37;101101.81;5059891;28;45306;-51
2022/04/02 00:35:26;;;;;;;;;10.50;9.75;;;;;3.88;58.95;101103.72;5059716;28;45357;-53
2022/04/02 00:37:51;;;;;;;;;13.25;9.75;;;;;3.71;58.11;101068.75;5059550;28;46218;-51
2022/04/02 00:40:17;;;;;;;;;10.75;7.50;;;;;3.83;58.74;101092.59;5059566;28;45350;-51
2022/04/02 00:42:44;;;;;;;;;9.50;6.75;;;;;3.79;58.26;101091.94;5059869;28;45342;-50
2022/04/02 00:45:10;;;;;;;;;6.50;5.00;;;;;3.77;58.07;101085.94;5060199;28;45273;-51
2022/04/02 00:47:36;;;;;;;;;11.00;7.00;;;;;3.77;57.96;101095.63;5059572;28;46203;-51
2022/04/02 00:50:01;;;;;;;;;8.25;5.50;;;;;3.77;58.01;101082.47;5059367;28;45357;-51
2022/04/02 00:52:27;;;;;;;;;8.00;8.00;;;;;3.77;57.97;101078.06;5059743;28;45292;-50
2022/04/02 00:54:53;;;;;;;;;6.00;4.75;;;;;3.78;57.52;101092.88;5059917;28;45243;-53
2022/04/02 00:57:19;;;;;;;;;9.00;7.25;;;;;3.78;56.86;101082.38;5059191;28;45547;-51
2022/04/02 00:59:45;;;;;;;;;10.50;5.00;;;;;3.81;56.92;101083.97;5058365;28;45495;-52
2022/04/02 01:02:12;;;;;;;;;11.00;6.00;;;;;3.77;56.80;101088.56;5059481;28;45286;-51
2022/04/02 01:04:37;;;;;;;;;5.25;5.00;;;;;3.74;57.00;101091.38;5059292;28;45298;-49
2022/04/02 01:07:03;;;;;;;;;6.25;6.25;;;;;3.71;56.57;101091.59;5059072;28;45433;-52
2022/04/02 01:09:29;;;;;;;;;5.50;5.50;;;;;3.65;56.21;101087.53;5059191;28;45350;-50
2022/04/02 01:11:56;;;;;;;;;8.00;3.50;;;;;3.62;56.41;101085.09;5059081;28;45346;-52
2022/04/02 01:14:22;;;;;;;;;6.50;5.75;;;;;3.63;56.38;101091.22;5059123;28;45470;-53
2022/04/02 01:16:48;;;;;;;;;9.50;4.75;;;;;3.60;56.29;101089.59;5058603;28;46116;-51
2022/04/02 01:19:13;;;;;;;;;8.75;4.75;;;;;3.53;56.59;101075.13;5058947;28;45333;-51
2022/04/02 01:21:39;;;;;;;;;6.50;4.00;;;;;3.56;55.79;101082.84;5059098;28;45438;-52
2022/04/02 01:24:05;;;;;;;;;6.00;6.00;;;;;3.49;55.90;101078.88;5059060;28;45325;-51
2022/04/02 01:26:31;;;;;;;;;8.00;7.00;;;;;3.52;55.98;101078.72;5058369;28;46855;-51
2022/04/02 01:29:00;;;;;;;;;6.50;5.00;;;;;3.50;55.72;101081.44;5058543;28;45263;-52
2022/04/02 01:31:26;;;;;;;;;6.50;4.00;;;;;3.48;55.93;101083.31;5058841;28;45298;-52
2022/04/02 01:33:53;;;;;;;;;2.00;1.00;;;;;3.46;56.04;101094.88;5059111;28;45278;-53
2022/04/02 01:36:20;;;;;;;;;3.25;3.25;;;;;3.44;54.98;101091.47;5058628;28;45345;-52
2022/04/02 01:38:46;;;;;;;;;5.50;4.00;;;;;3.42;55.67;101091.56;5058515;28;45456;-53
2022/04/02 01:41:12;;;;;;;;;8.00;4.00;;;;;3.36;55.38;101089.28;5058690;28;45437;-51
2022/04/02 01:43:38;;;;;;;;;5.75;4.75;;;;;3.39;55.02;101089.13;5058733;28;45610;-52
2022/04/02 01:46:04;;;;;;;;;6.25;3.50;;;;;3.37;55.34;101098.91;5058644;28;45409;-51
2022/04/02 01:48:30;;;;;;;;;6.75;4.50;;;;;3.37;55.25;101108.53;5040360;28;45442;-51
2022/04/02 01:50:56;;;;;;;;;4.00;4.00;;;;;3.33;55.95;101096.50;5058565;28;45317;-53
2022/04/02 01:53:24;;;;;;;;;7.25;4.75;;;;;3.35;55.13;101115.69;5058779;28;45509;-52
2022/04/02 01:55:50;;;;;;;;;3.00;3.00;;;;;3.32;55.48;101111.44;5058216;28;46082;-53
2022/04/02 01:58:16;;;;;;;;;5.25;4.00;;;;;3.25;54.82;101102.25;5058192;28;45242;-51
2022/04/02 02:00:41;;;;;;;;;8.00;3.75;;;;;3.30;55.53;101107.25;5058315;28;45286;-52
2022/04/02 02:03:07;;;;;;;;;5.50;3.50;;;;;3.29;56.01;101123.94;5058393;28;45353;-51
2022/04/02 02:05:34;;;;;;;;;5.50;4.75;;;;;3.27;55.38;101113.50;5058301;28;45988;-53
2022/04/02 02:07:59;;;;;;;;;4.00;4.00;;;;;3.23;55.79;101112.00;5058270;28;45440;-53
2022/04/02 02:10:25;;;;;;;;;4.50;4.50;;;;;3.24;55.68;101117.19;5058576;28;45581;-51
2022/04/02 02:12:51;;;;;;;;;5.50;2.25;;;;;3.24;55.58;101125.06;5058341;28;45492;-53
2022/04/02 02:15:17;;;;;;;;;10.50;4.50;;;;;3.23;55.85;101123.38;5057678;28;45872;-52
2022/04/02 02:17:49;;;;;;;;;6.00;6.00;;;;;3.22;55.37;101119.03;5057987;28;45450;-51
2022/04/02 02:20:17;;;;;;;;;7.75;3.00;;;;;3.22;55.49;101124.31;5058141;28;45293;-50
2022/04/02 02:22:44;;;;;;;;;4.00;4.00;;;;;3.19;55.84;101116.59;5058402;28;45234;-51
2022/04/02 02:25:11;;;;;;;;;4.00;4.00;;;;;3.20;55.36;101114.81;5057772;28;46196;-52
2022/04/02 02:27:38;;;;;;;;;9.75;4.50;;;;;3.20;55.68;101114.81;5057879;28;45468;-52
2022/04/02 02:30:06;;;;;;;;;6.00;2.25;;;;;3.21;55.51;101116.53;5058004;28;45360;-51
2022/04/02 02:32:36;;;;;;;;;6.25;3.00;;;;;3.20;56.06;101115.69;5057850;28;45546;-51
2022/04/02 02:37:49;;;;;;;;;3.50;3.00;;;;;3.15;55.84;101111.59;5057711;28;45452;-52
2022/04/02 02:40:15;;;;;;;;;10.00;5.50;;;;;3.16;55.64;101124.69;5058068;28;45974;-51
2022/04/02 02:42:41;;;;;;;;;6.00;3.25;;;;;3.14;55.71;101126.53;5059639;28;45438;-52
2022/04/02 02:45:07;;;;;;;;;10.75;5.25;;;;;2.99;55.82;101102.00;5058401;28;46378;-51
2022/04/02 02:47:32;;;;;;;;;5.50;5.50;;;;;3.11;55.22;101129.34;5058744;28;45365;-54
2022/04/02 02:49:58;;;;;;;;;6.50;4.00;;;;;3.11;56.09;101131.13;5057820;28;45287;-51
2022/04/02 02:52:23;;;;;;;;;7.25;5.75;;;;;3.07;55.20;101135.69;5057786;28;45377;-52
2022/04/02 02:54:48;;;;;;;;;5.25;3.00;;;;;3.07;56.06;101137.50;5056363;28;45349;-51
2022/04/02 02:57:14;;;;;;;;;7.50;4.25;;;;;2.95;55.99;101125.91;5057392;28;45433;-50
2022/04/02 02:59:39;;;;;;;;;4.00;4.00;;;;;3.01;56.14;101136.06;5057351;28;45336;-53
2022/04/02 03:02:05;;;;;;;;;4.00;4.00;;;;;3.02;55.91;101136.91;5057612;28;45434;-52
2022/04/02 03:04:30;;;;;;;;;7.00;4.50;;;;;3.02;55.87;101143.00;5057241;28;46060;-52
2022/04/02 03:06:57;;;;;;;;;7.25;4.50;;;;;2.95;55.94;101136.41;5057189;28;45408;-51
2022/04/02 03:09:22;;;;;;;;;8.00;8.00;;;;;3.00;55.88;101151.00;5057261;28;45384;-53
2022/04/02 03:11:48;;;;;;;;;4.00;4.00;;;;;3.00;55.85;101152.78;5057486;28;45516;-52
2022/04/02 03:14:13;;;;;;;;;9.00;4.75;;;;;2.97;56.12;101161.69;5056732;28;46274;-52
2022/04/02 03:16:38;;;;;;;;;9.25;6.00;;;;;2.91;56.04;101145.44;5056963;28;45267;-52
2022/04/02 03:19:06;;;;;;;;;8.50;6.75;;;;;2.95;55.85;101154.81;5057197;28;45441;-50
2022/04/02 03:21:32;;;;;;;;;8.25;4.00;;;;;2.92;56.45;101153.22;5056719;28;45369;-51
2022/04/02 03:23:58;;;;;;;;;5.75;4.00;;;;;2.91;56.10;101155.94;5057086;28;46145;-52
2022/04/02 03:26:26;;;;;;;;;6.50;4.00;;;;;2.90;56.28;101159.47;5056949;28;45361;-51
2022/04/02 03:28:52;;;;;;;;;8.00;6.00;;;;;2.89;56.09;101158.63;5056135;28;45305;-53
2022/04/02 03:31:17;;;;;;;;;14.50;9.25;;;;;2.87;56.40;101160.53;5056956;28;45423;-51
2022/04/02 03:33:42;;;;;;;;;4.00;4.00;;;;;2.87;56.44;101157.06;5056763;28;46466;-51
2022/04/02 03:36:10;;;;;;;;;7.00;5.00;;;;;2.85;56.49;101157.13;5056974;28;45373;-51
2022/04/02 03:38:36;;;;;;;;;14.00;6.50;;;;;2.83;56.39;101161.63;5056933;28;45436;-52
2022/04/02 03:41:04;;;;;;;;;4.50;4.50;;;;;2.83;57.00;101158.16;5057259;28;45344;-52
2022/04/02 03:43:30;;;;;;;;;5.25;4.75;;;;;2.82;56.43;101161.69;5056710;28;46268;-52
2022/04/02 03:47:08;;;;;;;;;9.25;7.00;;;;;2.81;56.84;101160.00;5056938;28;45226;-53
2022/04/02 03:48:40;;;;;;;;;10.00;6.00;;;;;2.77;56.58;101156.69;5056967;28;45380;-52
2022/04/02 03:51:06;;;;;;;;;6.00;6.00;;;;;2.78;56.64;101165.44;5057003;28;45266;-54
2022/04/02 03:53:31;;;;;;;;;6.75;6.75;;;;;2.76;56.73;101152.38;5056598;28;45330;-50
2022/04/02 03:55:57;;;;;;;;;7.00;7.00;;;;;2.76;57.00;101168.16;5056634;28;45554;-50
2022/04/02 03:58:22;;;;;;;;;6.75;4.00;;;;;2.73;56.76;101160.44;5056717;28;45291;-50
2022/04/02 04:00:47;;;;;;;;;8.50;6.00;;;;;2.74;57.00;101170.03;5056803;28;45369;-51
2022/04/02 04:03:13;;;;;;;;;12.25;9.00;;;;;2.71;56.92;101176.28;5056542;28;45330;-54
2022/04/02 04:05:38;;;;;;;;;9.75;5.75;;;;;2.71;57.18;101167.56;5056524;28;45428;-51
2022/04/02 04:08:04;;;;;;;;;12.00;9.50;;;;;2.56;57.34;101144.78;5056897;28;45459;-51
2022/04/02 04:10:30;;;;;;;;;7.75;7.50;;;;;2.69;57.38;101169.41;5056779;28;45434;-51
2022/04/02 04:12:55;;;;;;;;;12.25;7.00;;;;;2.64;57.32;101163.59;5056287;28;46266;-51
2022/04/02 04:15:21;;;;;;;;;10.25;6.50;;;;;2.69;57.31;101179.94;5056247;28;45439;-51
2022/04/02 04:17:46;;;;;;;;;6.00;6.00;;;;;2.68;57.53;101179.09;5056290;28;45734;-52
2022/04/02 04:20:11;;;;;;;;;7.75;6.00;;;;;2.66;57.36;101180.97;5056820;28;45472;-50
2022/04/02 04:22:37;;;;;;;;;8.75;6.25;;;;;2.65;57.01;101192.38;5056291;28;45278;-49
2022/04/02 04:25:03;;;;;;;;;7.25;7.25;;;;;2.62;57.42;101173.34;5056376;28;45237;-51
2022/04/02 04:27:28;;;;;;;;;9.00;7.75;;;;;2.61;57.43;101192.63;5056438;28;45258;-51
2022/04/02 04:29:54;;;;;;;;;4.50;4.50;;;;;2.62;57.51;101192.56;5056652;28;45290;-51
2022/04/02 04:32:19;;;;;;;;;6.00;6.00;;;;;2.61;57.51;101196.13;5055573;28;45204;-51
2022/04/02 04:34:44;;;;;;;;;7.50;6.00;;;;;2.59;57.33;101200.59;5058471;28;45210;-49
2022/04/02 04:37:10;;;;;;;;;7.25;6.25;;;;;2.59;57.57;101203.25;5059735;28;45274;-52
2022/04/02 04:39:37;;;;;;;;;9.75;7.00;;;;;2.58;57.71;101201.56;5059860;28;45333;-52
2022/04/02 04:42:02;;;;;;;;;5.75;4.75;;;;;2.55;57.80;101206.97;5059381;28;46249;-52
2022/04/02 04:44:28;;;;;;;;;9.25;5.00;;;;;2.53;57.64;101203.59;5059529;28;45365;-52
2022/04/02 04:46:53;;;;;;;;;9.00;7.00;;;;;2.55;57.58;101222.72;5059343;28;45454;-54
2022/04/02 04:49:19;;;;;;;;;4.00;4.00;;;;;2.55;57.80;101212.22;5059669;28;45379;-54
2022/04/02 04:51:45;;;;;;;;;6.75;6.50;;;;;2.54;57.77;101209.69;5059042;28;46420;-51
2022/04/02 04:54:10;;;;;;;;;11.50;7.00;;;;;2.54;57.89;101221.03;5059399;28;45556;-53
2022/04/02 04:56:36;;;;;;;;;12.25;7.25;;;;;2.53;57.76;101214.09;5059700;28;45183;-53
2022/04/02 04:59:01;;;;;;;;;7.00;7.00;;;;;2.54;57.42;101223.66;5059636;28;45381;-51
2022/04/02 05:01:28;;;;;;;;;9.50;7.00;;;;;2.54;57.91;101225.44;5059189;28;47281;-53
2022/04/02 05:03:53;;;;;;;;;13.50;7.00;;;;;2.52;57.75;101222.88;5059207;28;45279;-53
2022/04/02 05:06:19;;;;;;;;;4.00;4.00;;;;;2.52;57.85;101228.13;5059470;28;45405;-53
2022/04/02 05:08:45;;;;;;;;;12.25;7.00;;;;;2.52;57.60;101232.53;5060166;28;45444;-51
2022/04/02 05:11:10;;;;;;;;;9.50;5.00;;;;;2.51;57.67;101236.94;5059446;28;47231;-53
2022/04/02 05:13:39;;;;;;;;;4.50;4.50;;;;;2.51;57.85;101234.31;5059428;28;45368;-53
2022/04/02 05:16:05;;;;;;;;;7.00;7.00;;;;;2.51;57.91;101239.56;5059043;28;45627;-50
2022/04/02 05:18:31;;;;;;;;;9.00;5.25;;;;;2.51;57.84;101242.19;5059587;28;45384;-51
2022/04/02 05:20:56;;;;;;;;;13.50;9.00;;;;;2.52;57.85;101245.66;5058919;28;46293;-54
2022/04/02 05:23:22;;;;;;;;;9.75;4.50;;;;;2.50;57.67;101251.00;5058932;28;45309;-54
2022/04/02 05:25:47;;;;;;;;;7.75;6.25;;;;;2.48;57.89;101244.97;5058723;28;45322;-52
2022/04/02 05:28:12;;;;;;;;;8.75;6.75;;;;;2.50;57.57;101259.75;5058974;28;45737;-54
2022/04/02 05:30:38;;;;;;;;;12.25;8.50;;;;;2.49;57.71;101255.41;5058647;28;45292;-53
2022/04/02 05:33:04;;;;;;;;;6.75;4.00;;;;;2.50;57.68;101257.13;5040564;28;45421;-52
2022/04/02 05:35:29;;;;;;;;;8.25;7.50;;;;;2.51;57.85;101257.94;5058683;28;45320;-51
2022/04/02 05:37:55;;;;;;;;;6.00;6.00;;;;;2.38;58.02;101242.00;5058968;28;45380;-53
2022/04/02 05:40:20;;;;;;;;;10.00;7.00;;;;;2.49;57.52;101263.31;5058544;28;46881;-51
2022/04/02 05:42:45;;;;;;;;;13.25;6.75;;;;;2.43;57.81;101254.88;5040282;28;45230;-53
2022/04/02 05:45:12;;;;;;;;;7.00;7.00;;;;;2.49;57.54;101260.69;5058297;28;45195;-53
2022/04/02 05:47:49;;;;;;;;;12.00;4.00;;;;;2.52;57.50;101267.53;5058517;28;45594;-50
2022/04/02 05:50:16;;;;;;;;;10.25;8.00;;;;;2.53;57.74;101271.88;5058218;28;46251;-52
2022/04/02 05:52:42;;;;;;;;;9.50;9.25;;;;;2.48;57.79;101258.94;5058143;28;45535;-52
2022/04/02 05:55:13;;;;;;;;;6.50;6.25;;;;;2.54;57.32;101273.56;5058529;28;45240;-53
2022/04/02 05:57:40;;;;;;;;;8.50;7.75;;;;;2.57;57.52;101291.78;5058339;28;45422;-51
2022/04/02 06:00:10;;;;;;;;;9.75;9.75;;;;;2.58;57.41;101282.13;5058205;28;46180;-51
2022/04/02 06:02:37;;;;;;;;;7.50;6.75;;;;;2.62;57.48;101284.50;5058035;28;45238;-50
2022/04/02 06:05:03;;;;;;;;;14.50;7.00;;;;;2.65;57.54;101284.31;5058129;28;45340;-52
2022/04/02 06:07:30;;;;;;;;;9.00;9.00;;;;;2.68;57.53;101294.66;5058500;28;45517;-53
2022/04/02 06:09:56;;;;;;;;;11.75;8.75;;;;;2.67;57.16;101289.50;5057992;28;45324;-52
2022/04/02 06:12:21;;;;;;;;;11.25;7.50;;;;;2.75;57.37;101293.41;5057891;28;45451;-52
2022/04/02 06:14:46;;;;;;;;;9.00;6.00;;;;;2.78;57.00;101302.88;5058388;28;45829;-52
2022/04/02 06:17:12;;;;;;;;;5.00;5.00;;;;;2.81;57.04;101294.84;5057858;28;45442;-51
2022/04/02 06:19:37;;;;;;;;;9.00;6.75;;;;;2.83;57.00;101302.66;5058156;28;46633;-50
2022/04/02 06:22:06;;;;;;;;;13.25;10.00;;;;;2.85;57.33;101301.63;5058017;28;45319;-52
2022/04/02 06:24:35;;;;;;;;;7.50;7.50;;;;;2.85;56.90;101293.75;5058083;28;45409;-51
2022/04/02 06:27:00;;;;;;;;;7.00;7.00;;;;;2.91;56.73;101313.63;5058353;28;45583;-50
2022/04/02 06:29:26;;;;;;;;;6.50;6.50;;;;;2.98;57.14;101314.94;5057911;28;46155;-52
2022/04/02 06:31:51;;;;;;;;;10.00;8.00;;;;;3.02;56.66;101318.25;5057798;28;45362;-50
2022/04/02 06:34:17;;;;;;;;;8.00;6.50;;;;;3.04;56.60;101319.03;5057940;28;45819;-51
2022/04/02 06:36:42;;;;;;;;;6.50;4.00;;;;;3.08;56.78;101323.19;5058100;28;45325;-49
2022/04/02 06:39:07;;;;;;;;;7.50;7.25;;;;;3.06;56.64;101318.00;5058128;28;45313;-52
2022/04/02 06:41:33;;;;;;;;;15.75;11.50;;;;;3.17;56.60;101322.69;5057687;28;45335;-51
2022/04/02 06:43:58;;;;;;;;;8.50;7.50;;;;;3.15;56.52;101314.03;5057979;28;45215;-50
2022/04/02 06:46:23;;;;;;;;;7.50;7.00;;;;;3.18;56.64;101322.59;5058005;28;45289;-49
2022/04/02 06:48:49;;;;;;;;;8.75;8.75;;;;;3.27;56.76;101331.75;5057444;28;46185;-50
2022/04/02 06:51:15;;;;;;;;;13.00;7.00;;;;;3.34;57.09;101337.53;5057677;28;45473;-50
2022/04/02 06:53:40;;;;;;;;;11.50;7.00;;;;;3.35;56.62;101333.97;5057649;28;45329;-49
2022/04/02 06:56:05;;;;;;;;;11.50;8.50;;;;;3.35;56.02;101329.53;5057076;28;45416;-51
2022/04/02 06:58:34;;;;;;;;;13.50;7.25;;;;;3.43;56.50;101332.59;5057417;28;46268;-50
2022/04/02 07:00:59;;;;;;;;;8.25;8.25;;;;;3.45;56.40;101333.34;5057582;28;45266;-50
2022/04/02 07:03:24;;;;;;;;;11.00;9.25;;;;;3.51;56.60;101337.41;5057517;28;45512;-52
2022/04/02 07:05:50;;;;;;;;;11.00;6.75;;;;;3.62;55.82;101342.06;5057594;28;45226;-50
2022/04/02 07:08:16;;;;;;;;;9.00;6.75;;;;;3.67;55.92;101346.16;5057228;28;47144;-53
2022/04/02 07:10:41;;;;;;;;;10.00;6.75;;;;;3.73;55.47;101344.94;5057459;28;45320;-50
2022/04/02 07:13:07;;;;;;;;;7.00;7.00;;;;;3.83;55.86;101347.88;5039314;28;45348;-51
2022/04/02 07:15:32;;;;;;;;;10.75;8.00;;;;;3.96;55.76;101347.09;5057367;28;45309;-52
2022/04/02 07:18:04;;;;;;;;;7.25;3.50;;;;;4.04;54.54;101335.25;5056869;28;46584;-51
2022/04/02 07:20:34;;;;;;;;;5.00;5.00;;;;;4.33;54.76;101355.44;5057065;28;45329;-53
2022/04/02 07:23:01;;;;;;;;;10.00;6.00;;;;;4.69;54.56;101356.81;5057417;28;45460;-51
2022/04/02 07:25:29;;;;;;;;;6.00;4.25;;;;;6.00;51.97;101344.91;5057223;28;45388;-52
2022/04/02 07:27:55;;;;;;;;;5.75;4.75;;;;;7.09;50.90;101353.28;5056946;28;45381;-53
2022/04/02 07:30:22;;;;;;;;;11.25;6.00;;;;;8.02;47.24;101359.66;5056936;28;45434;-52
2022/04/02 07:32:47;;;;;;;;;15.00;6.50;;;;;8.32;46.40;101356.50;5056703;28;45362;-54
2022/04/02 07:35:12;;;;;;;;;8.00;6.00;;;;;8.60;47.84;101351.78;5057094;28;45588;-52
2022/04/02 07:38:01;;;;;;;;;9.00;7.00;;;;;8.90;44.61;101357.31;5056882;28;46150;-50
2022/04/02 07:40:30;;;;;;;;;11.25;6.50;;;;;9.32;46.02;101362.00;5056799;28;45240;-53
2022/04/02 07:43:19;;;;;;;;;9.50;7.25;;;;;9.70;45.56;101358.88;5056799;28;45329;-53
2022/04/02 07:45:50;;;;;;;;;6.50;4.00;;;;;10.15;43.04;101356.00;5056844;28;45161;-50
2022/04/02 07:48:16;;;;;;;;;6.00;6.00;;;;;10.91;43.69;101348.63;5056713;28;45453;-53
2022/04/02 07:50:44;;;;;;;;;6.00;5.25;;;;;11.85;40.18;101363.31;5056534;28;45407;-53
2022/04/02 07:53:22;;;;;;;;;6.25;5.00;;;;;12.41;40.06;101357.22;5056478;28;45318;-51
2022/04/02 07:55:56;;;;;;;;;9.75;6.25;;;;;11.53;39.70;101365.34;5056824;28;45500;-52
2022/04/02 07:58:28;;;;;;;;;9.75;5.25;;;;;10.79;40.54;101358.53;5056454;28;45213;-52
2022/04/02 08:00:55;;;;;;;;;6.25;6.00;;;;;10.40;40.99;101374.28;5056335;28;45405;-50
2022/04/02 08:03:23;;;;;;;;;5.00;5.00;;;;;10.99;41.31;101346.13;5055648;28;45307;-54
2022/04/02 08:05:49;;;;;;;;;7.50;3.50;;;;;12.70;37.38;101367.84;5056618;28;45360;-53
2022/04/02 08:08:15;;;;;;;;;3.00;3.00;;;;;14.00;36.46;101354.31;5057688;28;45456;-54
2022/04/02 08:10:45;;;;;;;;;7.00;5.33;;;;;14.89;34.48;101372.88;5059863;28;45340;-52
2022/04/02 08:13:14;;;;;;;;;6.00;6.00;;;;;15.71;34.90;101357.91;5059669;28;45426;-52
2022/04/02 08:15:40;;;;;;;;;7.67;6.00;;;;;15.98;32.18;101353.28;5059793;28;45378;-52
2022/04/02 08:18:06;;;;;;;;;3.67;3.67;;;;;16.98;30.63;101361.88;5059518;28;47260;-54
2022/04/02 08:20:32;;;;;;;;;10.33;7.67;;;;;17.65;30.63;101372.13;5059509;28;45254;-51
2022/04/02 08:22:58;;;;;;;;;4.00;3.00;;;;;18.12;28.19;101360.41;5060037;28;45291;-53
2022/04/02 08:25:23;;;;;;;;;9.00;5.00;;;;;18.25;28.50;101354.38;5059993;28;45210;-51
2022/04/02 08:28:05;;;;;;;;;5.00;5.00;;;;;17.89;29.32;101355.00;5059643;28;45424;-53
2022/04/02 08:30:38;;;;;;;;;5.33;5.33;;;;;18.06;32.23;101370.00;5059669;28;45367;-54
2022/04/02 08:33:33;;;;;;;;;3.33;3.33;;;;;17.65;28.60;101386.41;5059449;28;45421;-53
2022/04/02 08:35:59;;;;;;;;;5.00;5.00;;;;;17.99;30.14;101366.34;5059937;28;45437;-51
2022/04/02 08:38:44;;;;;;;;;5.00;3.00;;;;;18.75;28.67;101380.69;5059319;28;47014;-52
2022/04/02 08:41:55;;;;;;;;;7.33;4.00;;;;;19.00;25.20;101373.16;5059461;28;45415;-54
2022/04/02 08:44:30;;;;;;;;;4.33;4.33;;;;;19.64;26.64;101372.53;5059593;28;45307;-54
2022/04/02 08:47:13;;;;;;;;;5.67;5.00;;;;;19.64;27.89;101369.84;5059682;28;45218;-53
2022/04/02 08:49:39;;;;;;;;;4.67;4.00;;;;;19.56;25.41;101367.22;5058871;28;46060;-54
2022/04/02 08:52:14;;;;;;;;;3.00;3.00;;;;;20.03;25.99;101374.78;5058997;28;45400;-54
2022/04/02 08:55:00;;;;;;;;;2.33;2.33;;;;;19.96;25.50;101381.16;5059589;28;45322;-52
2022/04/02 08:57:32;;;;;;;;;4.33;4.00;;;;;18.09;26.46;101385.81;5042172;28;45359;-56
2022/04/02 09:00:09;;;;;;;;;2.33;2.33;;;;;17.54;27.72;101386.81;5059134;28;46084;-55
2022/04/02 09:02:53;;;;;;;;;5.00;4.00;;;;;17.32;28.48;101382.22;5059064;28;45253;-54
2022/04/02 09:05:46;;;;;;;;;3.00;3.00;;;;;16.98;29.01;101385.22;5059170;28;45350;-54
2022/04/02 09:08:30;;;;;;;;;3.00;1.67;;;;;17.10;27.20;101387.34;5059563;28;45290;-52
2022/04/02 09:11:25;;;;;;;;;5.67;4.00;;;;;17.53;27.93;101387.84;5058922;28;47139;-54
2022/04/02 09:13:59;;;;;;;;;5.33;4.00;;;;;17.84;27.00;101378.94;5059157;28;45328;-55
2022/04/02 09:17:09;;;;;;;;;4.67;3.33;;;;;18.16;29.28;101384.09;5059030;28;45492;-55
2022/04/02 09:20:01;;;;;;;;;4.67;4.00;;;;;18.48;27.36;101379.41;4957209;28;45392;-55
2022/04/02 09:22:36;;;;;;;;;5.00;4.33;;;;;19.13;25.29;101396.75;4957505;28;45551;-53
2022/04/02 09:25:26;;;;;;;;;4.00;4.00;;;;;19.55;28.72;101381.72;4957780;28;45429;-54
2022/04/02 09:28:14;;;;;;;;;4.67;4.67;;;;;19.94;27.23;101393.00;4957632;28;45463;-54
2022/04/02 09:31:09;;;;;;;;;9.67;6.67;;;;;21.25;25.57;101393.34;4957795;28;45419;-55
2022/04/02 09:33:53;;;;;;;;;7.00;4.00;;;;;23.85;23.08;101381.31;4957283;28;46259;-53
2022/04/02 09:37:03;;;;;;;;;5.00;4.75;;;;;25.93;19.95;101385.25;4956279;28;45385;-55
2022/04/02 09:40:04;;;;;;;;;5.00;5.00;;;;;27.88;18.61;101389.34;4900058;28;45380;-55
2022/04/02 09:42:43;;;;;;;;;5.50;4.00;;;;;27.27;17.47;101388.16;4897110;28;45390;-54
2022/04/02 09:56:09;;;;;;;;;5.20;5.20;;;;;27.79;16.02;101386.19;5090133;27;45364;-56
2022/04/02 09:58:57;;;;;;;;;3.80;3.80;;;;;26.47;16.28;101397.00;5072986;28;45232;-59
2022/04/02 10:01:22;;;;;;;;;3.00;3.00;;;;;27.23;15.71;101393.28;5072905;28;45438;-60
2022/04/02 10:03:52;;;;;;;;;3.25;3.25;;;;;27.45;16.28;101395.34;5073119;27;45455;-58
2022/04/02 10:06:20;;;;;;;;;0.00;0.00;;;;;29.42;13.94;101385.09;5072660;27;47392;-58
2022/04/02 10:08:54;;;;;;;;;2.00;2.00;;;;;30.72;13.11;101387.66;5072544;27;45305;-55
2022/04/02 10:11:26;;;;;;;;;3.00;3.00;;;;;31.04;14.76;101393.03;5072932;27;45312;-50
2022/04/02 10:13:52;;;;;;;;;3.20;3.00;;;;;31.25;14.87;101371.97;5072854;27;45489;-54
2022/04/02 10:16:22;;;;;;;;;5.25;3.75;;;;;31.62;13.34;101376.50;5072112;27;46156;-55
2022/04/02 10:18:53;;;;;;;;;4.20;2.60;;;;;31.82;13.25;101399.63;5072680;27;45379;-57
2022/04/02 10:21:19;;;;;;;;;5.40;2.80;;;;;32.25;10.41;101399.13;5072519;27;45577;-58
2022/04/02 10:23:52;;;;;;;;;5.00;3.00;;;;;33.07;12.54;101378.88;5072697;28;45447;-58
2022/04/02 10:26:20;;;;;;;;;3.00;3.00;;;;;33.50;12.00;101383.66;5072436;28;47234;-61
2022/04/02 10:28:56;;;;;;;;;4.80;3.00;;;;;33.30;11.55;101386.50;5072310;27;45345;-59
2022/04/02 10:31:27;;;;;;;;;5.40;4.80;;;;;33.74;11.23;101382.94;5072124;27;45359;-57
2022/04/02 10:34:01;;;;;;;;;4.40;3.60;;;;;34.70;12.29;101372.19;5072859;27;45461;-58
2022/04/02 10:36:27;;;;;;;;;4.00;4.00;;;;;35.08;9.77;101388.91;5072035;27;46763;-59
2022/04/02 10:38:53;;;;;;;;;3.40;3.00;;;;;35.27;10.51;101386.16;5072097;27;45278;-58
2022/04/02 10:41:19;;;;;;;;;3.60;3.60;;;;;35.88;11.19;101375.03;5072531;27;45299;-60
2022/04/02 10:43:54;;;;;;;;;4.00;4.00;;;;;35.30;11.59;101377.25;5072504;27;45590;-60
2022/04/02 10:46:24;;;;;;;;;3.60;3.60;;;;;35.48;10.77;101382.84;5072243;27;45897;-60
2022/04/02 10:49:00;;;;;;;;;4.00;3.00;;;;;32.75;11.51;101382.84;5072336;27;45426;-54
2022/04/02 10:51:29;;;;;;;;;3.80;3.60;;;;;30.43;14.47;101387.16;5072617;27;45327;-61
2022/04/02 10:54:10;;;;;;;;;5.40;3.20;;;;;28.92;12.97;101366.91;5072605;28;45504;-60
2022/04/02 10:56:44;;;;;;;;;3.00;3.00;;;;;30.56;13.92;101375.72;5059243;28;45537;-57
2022/04/02 10:59:11;;;;;;;;;4.80;4.00;;;;;28.65;14.22;101385.97;5058752;28;45902;-58
2022/04/02 11:01:43;;;;;;;;;5.80;4.00;;;;;25.56;15.53;101388.88;5058680;28;45352;-57
2022/04/02 11:04:43;;;;;;;;;5.00;3.20;;;;;23.14;16.51;101391.28;5057419;28;45389;-57
2022/04/02 11:07:08;;;;;;;;;3.00;3.00;;;;;22.84;18.02;101395.50;5057076;28;48116;-58
2022/04/02 11:09:36;;;;;;;;;4.25;4.00;;;;;21.70;17.71;101398.31;5058184;28;45229;-53
2022/04/02 11:12:06;;;;;;;;;3.25;3.25;;;;;23.77;15.78;101396.03;5058409;28;45391;-57
2022/04/02 11:14:42;;;;;;;;;4.00;4.00;;;;;23.47;16.73;101384.00;5058705;28;45450;-58
2022/04/02 11:17:25;;;;;;;;;5.50;4.25;;;;;22.94;16.71;101393.19;5057913;28;45580;-59
2022/04/02 11:19:54;;;;;;;;;3.00;3.00;;;;;25.30;15.80;101372.91;5057786;28;45304;-59
2022/04/02 11:22:30;;;;;;;;;4.80;4.60;;;;;25.93;15.26;101375.19;5057467;28;45408;-59
2022/04/02 11:25:11;;;;;;;;;4.00;4.00;;;;;25.57;16.60;101346.94;5056823;28;45368;-54
2022/04/02 11:27:38;;;;;;;;;4.00;4.00;;;;;24.92;15.44;101386.72;5056999;28;47210;-57
2022/04/02 11:30:10;;;;;;;;;4.80;4.00;;;;;25.57;16.99;101395.97;5057666;28;45297;-56
2022/04/02 11:32:41;;;;;;;;;4.80;4.60;;;;;26.71;15.95;101392.34;5057756;28;45392;-51
2022/04/02 11:35:13;;;;;;;;;4.80;3.00;;;;;27.53;14.40;101392.22;5058046;28;45460;-57
2022/04/02 11:37:55;;;;;;;;;3.00;3.00;;;;;28.20;15.55;101388.81;5056785;28;46005;-57
2022/04/02 11:40:26;;;;;;;;;3.60;2.80;;;;;27.60;14.09;101399.22;5055860;28;45669;-55
2022/04/02 11:42:52;;;;;;;;;3.80;2.80;;;;;27.54;14.08;101394.69;5057009;28;45434;-52
2022/04/02 11:45:19;;;;;;;;;3.00;3.00;;;;;27.47;13.76;101394.00;5057720;28;45469;-56
2022/04/02 11:48:16;;;;;;;;;4.60;3.00;;;;;26.91;15.30;101387.34;5057265;28;45430;-50
2022/04/02 11:50:43;;;;;;;;;4.20;4.20;;;;;24.42;15.27;101379.47;5057294;28;45565;-54
2022/04/02 11:53:10;;;;;;;;;5.00;3.00;;;;;22.61;16.56;101399.47;5057659;28;45418;-55
2022/04/02 11:55:37;;;;;;;;;4.00;4.00;;;;;21.50;16.76;101390.16;5057014;28;45381;-55